Time,TemperatureF,DewpointF,PressureIn,WindDirection,WindDirectionDegrees,WindSpeedMPH,WindSpeedGustMPH,Humidity,HourlyPrecipIn,Conditions,Clouds,dailyrainin,SoftwareType,DateUTC
2017-12-12 00:01:00,45.0,43.1,30.14,North,10,0.0,0.0,93,0.00,,---,0.00,VWS V15.00,2017-12-12 05:01:00,
2017-12-12 00:06:00,44.9,43.3,30.14,North,10,0.0,0.0,94,0.00,,---,0.00,VWS V15.00,2017-12-12 05:06:00,
2017-12-12 00:11:00,44.8,43.2,30.14,North,10,0.0,0.0,94,0.00,,---,0.00,VWS V15.00,2017-12-12 05:11:00,
2017-12-12 00:16:00,44.7,43.1,30.13,North,10,0.0,0.0,94,0.00,,---,0.00,VWS V15.00,2017-12-12 05:16:00,
2017-12-12 00:26:00,44.5,42.9,30.13,North,10,0.0,0.0,94,0.00,,---,0.00,VWS V15.00,2017-12-12 05:26:00,
2017-12-12 00:31:00,44.5,43.2,30.13,North,10,0.0,0.0,95,0.00,,---,0.00,VWS V15.00,2017-12-12 05:31:00,
2017-12-12 00:46:00,44.5,43.2,30.13,North,10,0.0,0.0,95,0.00,,---,0.00,VWS V15.00,2017-12-12 05:46:00,
2017-12-12 00:51:00,44.4,43.1,30.13,North,10,0.0,0.0,95,0.00,,---,0.00,VWS V15.00,2017-12-12 05:51:00,
2017-12-12 00:56:00,44.4,43.1,30.13,North,10,0.0,0.0,95,0.00,,---,0.00,VWS V15.00,2017-12-12 05:56:00,
2017-12-12 01:01:00,44.5,43.2,30.13,North,10,0.0,0.0,95,0.00,,---,0.00,VWS V15.00,2017-12-12 06:01:00,
2017-12-12 01:06:00,44.5,43.2,30.12,North,10,0.0,0.0,95,0.00,,---,0.00,VWS V15.00,2017-12-12 06:06:00,
2017-12-12 01:11:00,44.6,43.3,30.12,North,10,0.0,0.0,95,0.00,,---,0.00,VWS V15.00,2017-12-12 06:11:00,
2017-12-12 01:16:00,44.6,43.3,30.12,North,10,0.0,0.0,95,0.00,,---,0.00,VWS V15.00,2017-12-12 06:16:00,
2017-12-12 01:21:00,44.7,43.6,30.12,North,10,0.0,0.0,96,0.00,,---,0.00,VWS V15.00,2017-12-12 06:21:00,
2017-12-12 01:31:00,44.7,43.6,30.12,North,10,0.0,0.0,96,0.00,,---,0.00,VWS V15.00,2017-12-12 06:31:00,
2017-12-12 01:36:00,44.7,43.6,30.12,North,10,0.0,0.0,96,0.00,,---,0.00,VWS V15.00,2017-12-12 06:36:00,
2017-12-12 01:41:00,44.6,43.3,30.12,North,10,0.0,0.0,95,0.00,,---,0.00,VWS V15.00,2017-12-12 06:41:00,
2017-12-12 01:56:00,44.2,43.1,30.11,North,10,0.0,0.0,96,0.00,,---,0.00,VWS V15.00,2017-12-12 06:56:00,
2017-12-12 02:01:00,44.1,43.0,30.11,North,10,0.0,0.0,96,0.00,,---,0.00,VWS V15.00,2017-12-12 07:01:00,
2017-12-12 02:11:00,43.8,42.5,30.11,North,10,0.0,0.0,95,0.00,,---,0.00,VWS V15.00,2017-12-12 07:11:00,
2017-12-12 02:21:00,43.8,42.7,30.11,North,10,0.0,0.0,96,0.00,,---,0.00,VWS V15.00,2017-12-12 07:21:00,
2017-12-12 02:31:00,43.7,42.6,30.10,North,10,0.0,0.0,96,0.00,,---,0.00,VWS V15.00,2017-12-12 07:31:00,
2017-12-12 02:36:00,43.7,42.6,30.10,North,10,0.0,0.0,96,0.00,,---,0.00,VWS V15.00,2017-12-12 07:36:00,
2017-12-12 02:41:00,43.7,42.6,30.10,North,10,0.0,0.0,96,0.00,,---,0.00,VWS V15.00,2017-12-12 07:41:00,
2017-12-12 02:44:00,43.8,42.7,30.10,North,10,0.0,0.0,96,0.00,,---,0.00,VWS V15.00,2017-12-12 07:44:00,
2017-12-12 02:48:00,43.7,42.6,30.10,North,10,0.0,0.0,96,0.00,,---,0.00,VWS V15.00,2017-12-12 07:48:00,
2017-12-12 02:53:00,43.7,42.6,30.10,North,10,0.0,0.0,96,0.00,,---,0.00,VWS V15.00,2017-12-12 07:53:00,
2017-12-12 03:03:00,43.7,42.6,30.09,North,10,0.0,0.0,96,0.00,,---,0.00,VWS V15.00,2017-12-12 08:03:00,
2017-12-12 03:08:00,43.6,42.5,30.09,North,10,0.0,0.0,96,0.00,,---,0.00,VWS V15.00,2017-12-12 08:08:00,
2017-12-12 03:18:00,43.6,42.5,30.09,North,10,0.0,0.0,96,0.00,,---,0.00,VWS V15.00,2017-12-12 08:18:00,
2017-12-12 03:33:00,43.3,42.2,30.08,North,10,0.0,0.0,96,0.00,,---,0.00,VWS V15.00,2017-12-12 08:33:00,
2017-12-12 03:38:00,43.4,42.3,30.09,North,10,0.0,0.0,96,0.00,,---,0.00,VWS V15.00,2017-12-12 08:38:00,
2017-12-12 03:48:00,43.3,42.2,30.09,North,10,0.0,0.0,96,0.00,,---,0.00,VWS V15.00,2017-12-12 08:48:00,
2017-12-12 03:53:00,43.3,42.2,30.09,North,10,0.0,0.0,96,0.00,,---,0.00,VWS V15.00,2017-12-12 08:53:00,
2017-12-12 03:58:00,43.3,42.2,30.09,North,10,0.0,0.0,96,0.00,,---,0.00,VWS V15.00,2017-12-12 08:58:00,
2017-12-12 04:03:00,43.3,42.2,30.09,North,10,0.0,0.0,96,0.00,,---,0.00,VWS V15.00,2017-12-12 09:03:00,
2017-12-12 04:23:00,43.4,42.6,30.09,North,10,0.0,0.0,97,0.00,,---,0.00,VWS V15.00,2017-12-12 09:23:00,
2017-12-12 04:28:00,43.4,42.6,30.09,North,10,0.0,0.0,97,0.00,,---,0.00,VWS V15.00,2017-12-12 09:28:00,
2017-12-12 04:38:00,43.3,42.5,30.08,North,10,0.0,0.0,97,0.00,,---,0.00,VWS V15.00,2017-12-12 09:38:00,
2017-12-12 04:43:00,43.3,42.5,30.08,North,10,0.0,0.0,97,0.00,,---,0.00,VWS V15.00,2017-12-12 09:43:00,
2017-12-12 04:53:00,43.2,42.4,30.08,North,10,0.0,0.0,97,0.00,,---,0.00,VWS V15.00,2017-12-12 09:53:00,
2017-12-12 04:58:00,43.2,42.4,30.08,North,10,0.0,0.0,97,0.00,,---,0.00,VWS V15.00,2017-12-12 09:58:00,
2017-12-12 05:03:00,43.1,42.3,30.07,North,10,0.0,0.0,97,0.00,,---,0.00,VWS V15.00,2017-12-12 10:03:00,
2017-12-12 05:13:00,43.0,42.2,30.07,North,10,0.0,0.0,97,0.00,,---,0.00,VWS V15.00,2017-12-12 10:13:00,
2017-12-12 05:18:00,43.0,42.2,30.07,North,10,0.0,0.0,97,0.00,,---,0.00,VWS V15.00,2017-12-12 10:18:00,
2017-12-12 05:23:00,42.9,42.1,30.07,North,10,0.0,0.0,97,0.00,,---,0.00,VWS V15.00,2017-12-12 10:23:00,
2017-12-12 05:33:00,42.7,41.9,30.07,North,10,0.0,0.0,97,0.00,,---,0.00,VWS V15.00,2017-12-12 10:33:00,
2017-12-12 05:43:00,42.5,41.7,30.08,North,10,0.0,0.0,97,0.00,,---,0.00,VWS V15.00,2017-12-12 10:43:00,
2017-12-12 05:53:00,42.2,41.4,30.08,North,10,0.0,0.0,97,0.00,,---,0.00,VWS V15.00,2017-12-12 10:53:00,
2017-12-12 05:58:00,42.1,41.3,30.08,North,10,0.0,0.0,97,0.00,,---,0.00,VWS V15.00,2017-12-12 10:58:00,
2017-12-12 06:03:00,42.1,41.3,30.08,North,10,0.0,0.0,97,0.00,,---,0.00,VWS V15.00,2017-12-12 11:03:00,
2017-12-12 06:18:00,41.8,41.0,30.09,North,10,0.0,0.0,97,0.00,,---,0.00,VWS V15.00,2017-12-12 11:18:00,
2017-12-12 06:23:00,41.7,40.9,30.09,North,10,0.0,0.0,97,0.00,,---,0.00,VWS V15.00,2017-12-12 11:23:00,
2017-12-12 06:28:00,41.7,40.9,30.09,North,10,0.0,0.0,97,0.00,,---,0.00,VWS V15.00,2017-12-12 11:28:00,
2017-12-12 06:33:00,41.6,40.8,30.09,North,10,0.0,0.0,97,0.00,,---,0.00,VWS V15.00,2017-12-12 11:33:00,
2017-12-12 06:38:00,41.7,40.9,30.09,North,10,0.0,0.0,97,0.00,,---,0.00,VWS V15.00,2017-12-12 11:38:00,
2017-12-12 06:48:00,41.6,40.8,30.09,North,10,0.0,0.0,97,0.00,,---,0.00,VWS V15.00,2017-12-12 11:48:00,
2017-12-12 06:53:00,41.5,40.7,30.09,North,10,0.0,0.0,97,0.00,,---,0.00,VWS V15.00,2017-12-12 11:53:00,
2017-12-12 07:03:00,41.4,40.6,30.09,North,10,0.0,0.0,97,0.00,,---,0.00,VWS V15.00,2017-12-12 12:03:00,
2017-12-12 07:08:00,41.3,40.5,30.10,North,10,0.0,0.0,97,0.00,,---,0.00,VWS V15.00,2017-12-12 12:08:00,
2017-12-12 07:14:00,41.3,40.5,30.10,North,10,0.0,0.0,97,0.00,,---,0.00,VWS V15.00,2017-12-12 12:14:00,
2017-12-12 07:24:00,41.4,40.6,30.10,North,10,0.0,0.0,97,0.00,,---,0.00,VWS V15.00,2017-12-12 12:24:00,